sensor_id;sensor_type;location;lat;lon;timestamp;temperature;humidity
23267;DHT22;11802;53.160;8.214;2022-08-21T00:01:58;15.30;99.90
23267;DHT22;11802;53.160;8.214;2022-08-21T00:04:24;15.30;99.90
23267;DHT22;11802;53.160;8.214;2022-08-21T00:06:51;15.20;99.90
23267;DHT22;11802;53.160;8.214;2022-08-21T00:09:18;15.20;99.90
23267;DHT22;11802;53.160;8.214;2022-08-21T00:11:43;15.20;99.90
23267;DHT22;11802;53.160;8.214;2022-08-21T00:14:14;15.20;99.90
23267;DHT22;11802;53.160;8.214;2022-08-21T00:16:40;15.20;99.90
23267;DHT22;11802;53.160;8.214;2022-08-21T00:19:06;15.10;99.90
23267;DHT22;11802;53.160;8.214;2022-08-21T00:21:33;15.10;99.90
23267;DHT22;11802;53.160;8.214;2022-08-21T00:23:59;15.00;99.90
23267;DHT22;11802;53.160;8.214;2022-08-21T00:26:25;14.90;99.90
23267;DHT22;11802;53.160;8.214;2022-08-21T00:28:51;14.80;99.90
23267;DHT22;11802;53.160;8.214;2022-08-21T00:31:17;14.80;99.90
23267;DHT22;11802;53.160;8.214;2022-08-21T00:33:43;14.80;99.90
23267;DHT22;11802;53.160;8.214;2022-08-21T00:36:09;14.80;99.90
23267;DHT22;11802;53.160;8.214;2022-08-21T00:38:35;14.70;99.90
23267;DHT22;11802;53.160;8.214;2022-08-21T00:41:06;14.70;99.90
23267;DHT22;11802;53.160;8.214;2022-08-21T00:43:34;14.80;99.90
23267;DHT22;11802;53.160;8.214;2022-08-21T00:46:01;14.70;99.90
23267;DHT22;11802;53.160;8.214;2022-08-21T00:48:27;14.70;99.90
23267;DHT22;11802;53.160;8.214;2022-08-21T00:51:01;14.70;99.90
23267;DHT22;11802;53.160;8.214;2022-08-21T00:53:29;14.70;99.90
23267;DHT22;11802;53.160;8.214;2022-08-21T00:55:56;14.70;99.90
23267;DHT22;11802;53.160;8.214;2022-08-21T00:58:23;14.70;99.90
23267;DHT22;11802;53.160;8.214;2022-08-21T01:00:50;14.70;99.90
23267;DHT22;11802;53.160;8.214;2022-08-21T01:03:19;14.70;99.90
23267;DHT22;11802;53.160;8.214;2022-08-21T01:05:46;14.60;99.90
23267;DHT22;11802;53.160;8.214;2022-08-21T01:08:13;14.60;99.90
23267;DHT22;11802;53.160;8.214;2022-08-21T01:10:41;14.60;99.90
23267;DHT22;11802;53.160;8.214;2022-08-21T01:13:10;14.60;99.90
23267;DHT22;11802;53.160;8.214;2022-08-21T01:15:40;14.50;99.90
23267;DHT22;11802;53.160;8.214;2022-08-21T01:18:09;14.50;99.90
23267;DHT22;11802;53.160;8.214;2022-08-21T01:20:37;14.50;99.90
23267;DHT22;11802;53.160;8.214;2022-08-21T01:23:06;14.50;99.90
23267;DHT22;11802;53.160;8.214;2022-08-21T01:25:33;14.50;99.90
23267;DHT22;11802;53.160;8.214;2022-08-21T01:28:07;14.50;99.90
23267;DHT22;11802;53.160;8.214;2022-08-21T01:30:35;14.50;99.90
23267;DHT22;11802;53.160;8.214;2022-08-21T01:33:11;14.50;99.90
23267;DHT22;11802;53.160;8.214;2022-08-21T01:35:37;14.50;99.90
23267;DHT22;11802;53.160;8.214;2022-08-21T01:38:08;14.50;99.90
23267;DHT22;11802;53.160;8.214;2022-08-21T01:40:34;14.50;99.90
23267;DHT22;11802;53.160;8.214;2022-08-21T01:43:00;14.50;99.90
23267;DHT22;11802;53.160;8.214;2022-08-21T01:45:26;14.50;99.90
23267;DHT22;11802;53.160;8.214;2022-08-21T01:47:51;14.50;99.90
23267;DHT22;11802;53.160;8.214;2022-08-21T01:50:19;14.40;99.90
23267;DHT22;11802;53.160;8.214;2022-08-21T01:52:45;14.40;99.90
23267;DHT22;11802;53.160;8.214;2022-08-21T01:55:12;14.40;99.90
23267;DHT22;11802;53.160;8.214;2022-08-21T01:57:39;14.40;99.90
23267;DHT22;11802;53.160;8.214;2022-08-21T02:00:08;14.40;99.90
23267;DHT22;11802;53.160;8.214;2022-08-21T02:02:34;14.30;99.90
23267;DHT22;11802;53.160;8.214;2022-08-21T02:04:59;14.30;99.90
23267;DHT22;11802;53.160;8.214;2022-08-21T02:07:25;14.30;99.90
23267;DHT22;11802;53.160;8.214;2022-08-21T02:09:51;14.20;99.90
23267;DHT22;11802;53.160;8.214;2022-08-21T02:12:16;14.20;99.90
23267;DHT22;11802;53.160;8.214;2022-08-21T02:14:42;14.20;99.90
23267;DHT22;11802;53.160;8.214;2022-08-21T02:17:07;14.30;99.90
23267;DHT22;11802;53.160;8.214;2022-08-21T02:19:33;14.30;99.90
23267;DHT22;11802;53.160;8.214;2022-08-21T02:21:58;14.40;99.90
23267;DHT22;11802;53.160;8.214;2022-08-21T02:24:24;14.40;99.90
23267;DHT22;11802;53.160;8.214;2022-08-21T02:26:49;14.40;99.90
23267;DHT22;11802;53.160;8.214;2022-08-21T02:29:15;14.40;99.90
23267;DHT22;11802;53.160;8.214;2022-08-21T02:31:41;14.50;99.90
23267;DHT22;11802;53.160;8.214;2022-08-21T02:34:06;14.50;99.90
23267;DHT22;11802;53.160;8.214;2022-08-21T02:36:32;14.60;99.90
23267;DHT22;11802;53.160;8.214;2022-08-21T02:38:57;14.50;99.90
23267;DHT22;11802;53.160;8.214;2022-08-21T02:41:24;14.50;99.90
23267;DHT22;11802;53.160;8.214;2022-08-21T02:43:49;14.40;99.90
23267;DHT22;11802;53.160;8.214;2022-08-21T02:46:17;14.40;99.90
23267;DHT22;11802;53.160;8.214;2022-08-21T02:48:43;14.40;99.90
23267;DHT22;11802;53.160;8.214;2022-08-21T02:51:16;14.40;99.90
23267;DHT22;11802;53.160;8.214;2022-08-21T02:53:46;14.40;99.90
23267;DHT22;11802;53.160;8.214;2022-08-21T02:56:14;14.40;99.90
23267;DHT22;11802;53.160;8.214;2022-08-21T02:58:43;14.50;99.90
23267;DHT22;11802;53.160;8.214;2022-08-21T03:01:10;14.50;99.90
23267;DHT22;11802;53.160;8.214;2022-08-21T03:03:38;14.40;99.90
23267;DHT22;11802;53.160;8.214;2022-08-21T03:06:06;14.50;99.90
23267;DHT22;11802;53.160;8.214;2022-08-21T03:08:33;14.50;99.90
23267;DHT22;11802;53.160;8.214;2022-08-21T03:10:59;14.60;99.90
23267;DHT22;11802;53.160;8.214;2022-08-21T03:13:26;14.70;99.90
23267;DHT22;11802;53.160;8.214;2022-08-21T03:15:51;14.70;99.90
23267;DHT22;11802;53.160;8.214;2022-08-21T03:18:17;14.60;99.90
23267;DHT22;11802;53.160;8.214;2022-08-21T03:20:44;14.60;99.90
23267;DHT22;11802;53.160;8.214;2022-08-21T03:23:11;14.50;99.90
23267;DHT22;11802;53.160;8.214;2022-08-21T03:25:37;14.40;99.90
23267;DHT22;11802;53.160;8.214;2022-08-21T03:28:05;14.30;99.90
23267;DHT22;11802;53.160;8.214;2022-08-21T03:30:31;14.30;99.90
23267;DHT22;11802;53.160;8.214;2022-08-21T03:32:58;14.20;99.90
23267;DHT22;11802;53.160;8.214;2022-08-21T03:35:27;14.10;99.90
23267;DHT22;11802;53.160;8.214;2022-08-21T03:37:53;14.10;99.90
23267;DHT22;11802;53.160;8.214;2022-08-21T03:40:20;14.00;99.90
23267;DHT22;11802;53.160;8.214;2022-08-21T03:42:47;14.00;99.90
23267;DHT22;11802;53.160;8.214;2022-08-21T03:45:17;13.90;99.90
23267;DHT22;11802;53.160;8.214;2022-08-21T03:47:52;13.90;99.90
23267;DHT22;11802;53.160;8.214;2022-08-21T03:50:19;13.80;99.90
23267;DHT22;11802;53.160;8.214;2022-08-21T03:52:44;13.80;99.90
23267;DHT22;11802;53.160;8.214;2022-08-21T03:55:10;13.80;99.90
23267;DHT22;11802;53.160;8.214;2022-08-21T03:57:36;13.80;99.90
23267;DHT22;11802;53.160;8.214;2022-08-21T04:00:02;13.70;99.90
23267;DHT22;11802;53.160;8.214;2022-08-21T04:02:28;13.70;99.90
23267;DHT22;11802;53.160;8.214;2022-08-21T04:04:54;13.60;99.90
23267;DHT22;11802;53.160;8.214;2022-08-21T04:07:19;13.70;99.90
23267;DHT22;11802;53.160;8.214;2022-08-21T04:09:45;13.60;99.90
23267;DHT22;11802;53.160;8.214;2022-08-21T04:12:10;13.60;99.90
23267;DHT22;11802;53.160;8.214;2022-08-21T04:14:36;13.60;99.90
23267;DHT22;11802;53.160;8.214;2022-08-21T04:17:01;13.60;99.90
23267;DHT22;11802;53.160;8.214;2022-08-21T04:19:27;13.60;99.90
23267;DHT22;11802;53.160;8.214;2022-08-21T04:21:52;13.60;99.90
23267;DHT22;11802;53.160;8.214;2022-08-21T04:24:18;13.60;99.90
23267;DHT22;11802;53.160;8.214;2022-08-21T04:26:44;13.50;99.90
23267;DHT22;11802;53.160;8.214;2022-08-21T04:29:10;13.60;99.90
23267;DHT22;11802;53.160;8.214;2022-08-21T04:31:35;13.60;99.90
23267;DHT22;11802;53.160;8.214;2022-08-21T04:34:05;13.60;99.90
23267;DHT22;11802;53.160;8.214;2022-08-21T04:36:32;13.60;99.90
23267;DHT22;11802;53.160;8.214;2022-08-21T04:38:58;13.60;99.90
23267;DHT22;11802;53.160;8.214;2022-08-21T04:41:24;13.60;99.90
23267;DHT22;11802;53.160;8.214;2022-08-21T04:43:49;13.60;99.90
23267;DHT22;11802;53.160;8.214;2022-08-21T04:46:15;13.70;99.90
23267;DHT22;11802;53.160;8.214;2022-08-21T04:48:40;13.70;99.90
23267;DHT22;11802;53.160;8.214;2022-08-21T04:51:13;13.80;99.90
23267;DHT22;11802;53.160;8.214;2022-08-21T04:53:52;13.80;99.90
23267;DHT22;11802;53.160;8.214;2022-08-21T04:56:37;13.90;99.90
23267;DHT22;11802;53.160;8.214;2022-08-21T04:59:10;13.90;99.90
23267;DHT22;11802;53.160;8.214;2022-08-21T05:01:37;13.90;99.90
23267;DHT22;11802;53.160;8.214;2022-08-21T05:04:04;13.90;99.90
23267;DHT22;11802;53.160;8.214;2022-08-21T05:06:34;14.00;99.90
23267;DHT22;11802;53.160;8.214;2022-08-21T05:09:02;14.10;99.90
23267;DHT22;11802;53.160;8.214;2022-08-21T05:11:29;14.10;99.90
23267;DHT22;11802;53.160;8.214;2022-08-21T05:13:55;14.20;99.90
23267;DHT22;11802;53.160;8.214;2022-08-21T05:16:21;14.20;99.90
23267;DHT22;11802;53.160;8.214;2022-08-21T05:18:46;14.30;99.90
23267;DHT22;11802;53.160;8.214;2022-08-21T05:21:12;14.40;99.90
23267;DHT22;11802;53.160;8.214;2022-08-21T05:23:37;14.50;99.90
23267;DHT22;11802;53.160;8.214;2022-08-21T05:26:03;14.50;99.90
23267;DHT22;11802;53.160;8.214;2022-08-21T05:28:29;14.60;99.90
23267;DHT22;11802;53.160;8.214;2022-08-21T05:30:55;14.70;99.90
23267;DHT22;11802;53.160;8.214;2022-08-21T05:33:21;14.80;99.90
23267;DHT22;11802;53.160;8.214;2022-08-21T05:35:50;14.80;99.90
23267;DHT22;11802;53.160;8.214;2022-08-21T05:38:16;14.90;99.90
23267;DHT22;11802;53.160;8.214;2022-08-21T05:40:41;14.90;99.90
23267;DHT22;11802;53.160;8.214;2022-08-21T05:43:08;14.90;99.90
23267;DHT22;11802;53.160;8.214;2022-08-21T05:45:33;14.90;99.90
23267;DHT22;11802;53.160;8.214;2022-08-21T05:48:09;15.00;99.90
23267;DHT22;11802;53.160;8.214;2022-08-21T05:50:35;15.10;99.90
23267;DHT22;11802;53.160;8.214;2022-08-21T05:53:03;15.10;99.90
23267;DHT22;11802;53.160;8.214;2022-08-21T05:55:29;15.20;99.90
23267;DHT22;11802;53.160;8.214;2022-08-21T05:57:54;15.20;99.90
23267;DHT22;11802;53.160;8.214;2022-08-21T06:00:20;15.30;99.90
23267;DHT22;11802;53.160;8.214;2022-08-21T06:02:48;15.40;99.90
23267;DHT22;11802;53.160;8.214;2022-08-21T06:05:15;15.50;99.90
23267;DHT22;11802;53.160;8.214;2022-08-21T06:07:40;15.60;99.90
23267;DHT22;11802;53.160;8.214;2022-08-21T06:10:07;15.80;99.90
23267;DHT22;11802;53.160;8.214;2022-08-21T06:12:32;15.90;99.90
23267;DHT22;11802;53.160;8.214;2022-08-21T06:14:58;16.00;99.90
23267;DHT22;11802;53.160;8.214;2022-08-21T06:17:23;16.10;99.90
23267;DHT22;11802;53.160;8.214;2022-08-21T06:19:53;16.40;99.90
23267;DHT22;11802;53.160;8.214;2022-08-21T06:22:18;16.90;99.90
23267;DHT22;11802;53.160;8.214;2022-08-21T06:24:44;18.30;99.90
23267;DHT22;11802;53.160;8.214;2022-08-21T06:27:10;20.20;99.90
23267;DHT22;11802;53.160;8.214;2022-08-21T06:29:35;22.20;99.90
23267;DHT22;11802;53.160;8.214;2022-08-21T06:32:01;23.90;99.90
23267;DHT22;11802;53.160;8.214;2022-08-21T06:34:28;25.60;99.90
23267;DHT22;11802;53.160;8.214;2022-08-21T06:36:53;26.40;99.90
23267;DHT22;11802;53.160;8.214;2022-08-21T06:39:19;26.80;99.90
23267;DHT22;11802;53.160;8.214;2022-08-21T06:41:45;27.80;99.90
23267;DHT22;11802;53.160;8.214;2022-08-21T06:44:11;28.40;99.90
23267;DHT22;11802;53.160;8.214;2022-08-21T06:46:37;29.30;99.90
23267;DHT22;11802;53.160;8.214;2022-08-21T06:49:02;30.10;99.90
23267;DHT22;11802;53.160;8.214;2022-08-21T06:51:28;30.50;99.90
23267;DHT22;11802;53.160;8.214;2022-08-21T06:53:53;31.30;99.90
23267;DHT22;11802;53.160;8.214;2022-08-21T06:56:19;30.90;99.90
23267;DHT22;11802;53.160;8.214;2022-08-21T06:58:45;30.70;99.90
23267;DHT22;11802;53.160;8.214;2022-08-21T07:01:11;31.50;99.90
23267;DHT22;11802;53.160;8.214;2022-08-21T07:03:39;31.90;99.90
23267;DHT22;11802;53.160;8.214;2022-08-21T07:06:06;32.70;99.90
23267;DHT22;11802;53.160;8.214;2022-08-21T07:08:33;33.20;99.90
23267;DHT22;11802;53.160;8.214;2022-08-21T07:11:01;33.30;99.90
23267;DHT22;11802;53.160;8.214;2022-08-21T07:13:27;33.30;99.90
23267;DHT22;11802;53.160;8.214;2022-08-21T07:15:53;33.40;99.90
23267;DHT22;11802;53.160;8.214;2022-08-21T07:18:19;33.70;98.30
23267;DHT22;11802;53.160;8.214;2022-08-21T07:20:45;33.60;99.70
23267;DHT22;11802;53.160;8.214;2022-08-21T07:23:24;33.70;97.60
23267;DHT22;11802;53.160;8.214;2022-08-21T07:25:51;33.50;95.60
23267;DHT22;11802;53.160;8.214;2022-08-21T07:28:17;34.20;95.60
23267;DHT22;11802;53.160;8.214;2022-08-21T07:30:42;34.20;94.40
23267;DHT22;11802;53.160;8.214;2022-08-21T07:33:08;33.60;94.50
23267;DHT22;11802;53.160;8.214;2022-08-21T07:35:33;33.40;94.20
23267;DHT22;11802;53.160;8.214;2022-08-21T07:37:59;32.10;94.30
23267;DHT22;11802;53.160;8.214;2022-08-21T07:40:25;32.00;95.40
23267;DHT22;11802;53.160;8.214;2022-08-21T07:42:50;32.50;94.60
23267;DHT22;11802;53.160;8.214;2022-08-21T07:45:18;32.10;94.80
23267;DHT22;11802;53.160;8.214;2022-08-21T07:47:44;32.50;94.80
23267;DHT22;11802;53.160;8.214;2022-08-21T07:50:11;34.00;94.10
23267;DHT22;11802;53.160;8.214;2022-08-21T07:52:37;34.00;91.60
23267;DHT22;11802;53.160;8.214;2022-08-21T07:55:03;34.50;92.10
23267;DHT22;11802;53.160;8.214;2022-08-21T07:57:29;35.20;91.20
23267;DHT22;11802;53.160;8.214;2022-08-21T07:59:55;35.10;91.00
23267;DHT22;11802;53.160;8.214;2022-08-21T08:02:28;35.00;90.50
23267;DHT22;11802;53.160;8.214;2022-08-21T08:04:54;33.70;91.50
23267;DHT22;11802;53.160;8.214;2022-08-21T08:07:23;32.80;92.50
23267;DHT22;11802;53.160;8.214;2022-08-21T08:09:48;33.60;92.40
23267;DHT22;11802;53.160;8.214;2022-08-21T08:12:14;34.30;91.70
23267;DHT22;11802;53.160;8.214;2022-08-21T08:14:39;33.80;91.50
23267;DHT22;11802;53.160;8.214;2022-08-21T08:17:05;33.60;91.80
23267;DHT22;11802;53.160;8.214;2022-08-21T08:19:30;33.90;91.50
23267;DHT22;11802;53.160;8.214;2022-08-21T08:21:56;34.40;91.20
23267;DHT22;11802;53.160;8.214;2022-08-21T08:24:22;35.10;90.40
23267;DHT22;11802;53.160;8.214;2022-08-21T08:26:47;35.40;90.20
23267;DHT22;11802;53.160;8.214;2022-08-21T08:29:13;33.90;91.10
23267;DHT22;11802;53.160;8.214;2022-08-21T08:31:39;33.60;90.80
23267;DHT22;11802;53.160;8.214;2022-08-21T08:34:04;32.70;91.70
23267;DHT22;11802;53.160;8.214;2022-08-21T08:36:35;32.60;91.50
23267;DHT22;11802;53.160;8.214;2022-08-21T08:39:03;31.30;92.60
23267;DHT22;11802;53.160;8.214;2022-08-21T08:41:29;31.60;93.40
23267;DHT22;11802;53.160;8.214;2022-08-21T08:44:00;31.30;93.80
23267;DHT22;11802;53.160;8.214;2022-08-21T08:46:46;31.20;93.70
23267;DHT22;11802;53.160;8.214;2022-08-21T08:49:20;31.80;93.40
23267;DHT22;11802;53.160;8.214;2022-08-21T08:51:54;32.30;93.00
23267;DHT22;11802;53.160;8.214;2022-08-21T08:54:45;32.60;91.90
23267;DHT22;11802;53.160;8.214;2022-08-21T08:57:20;31.30;92.80
23267;DHT22;11802;53.160;8.214;2022-08-21T08:59:51;31.40;93.50
23267;DHT22;11802;53.160;8.214;2022-08-21T09:02:18;32.70;92.50
23267;DHT22;11802;53.160;8.214;2022-08-21T09:04:46;33.50;91.40
23267;DHT22;11802;53.160;8.214;2022-08-21T09:09:58;32.90;91.20
23267;DHT22;11802;53.160;8.214;2022-08-21T09:20:56;32.80;91.40
23267;DHT22;11802;53.160;8.214;2022-08-21T09:24:02;33.30;91.40
23267;DHT22;11802;53.160;8.214;2022-08-21T09:26:57;32.10;91.30
23267;DHT22;11802;53.160;8.214;2022-08-21T09:29:27;31.20;92.20
23267;DHT22;11802;53.160;8.214;2022-08-21T09:31:54;30.60;92.30
23267;DHT22;11802;53.160;8.214;2022-08-21T09:34:29;30.90;92.90
23267;DHT22;11802;53.160;8.214;2022-08-21T09:36:55;30.70;92.20
23267;DHT22;11802;53.160;8.214;2022-08-21T09:39:30;30.30;92.50
23267;DHT22;11802;53.160;8.214;2022-08-21T09:42:01;29.40;93.40
23267;DHT22;11802;53.160;8.214;2022-08-21T09:44:30;29.60;94.30
23267;DHT22;11802;53.160;8.214;2022-08-21T09:46:57;30.10;94.20
23267;DHT22;11802;53.160;8.214;2022-08-21T09:49:30;30.00;92.70
23267;DHT22;11802;53.160;8.214;2022-08-21T09:51:56;30.20;93.10
23267;DHT22;11802;53.160;8.214;2022-08-21T09:54:31;31.30;92.80
23267;DHT22;11802;53.160;8.214;2022-08-21T10:00:19;32.00;90.70
23267;DHT22;11802;53.160;8.214;2022-08-21T10:02:48;30.90;90.90
23267;DHT22;11802;53.160;8.214;2022-08-21T10:05:24;30.30;91.40
23267;DHT22;11802;53.160;8.214;2022-08-21T10:07:50;30.30;91.10
23267;DHT22;11802;53.160;8.214;2022-08-21T10:10:19;30.60;91.30
23267;DHT22;11802;53.160;8.214;2022-08-21T10:13:12;30.30;92.00
23267;DHT22;11802;53.160;8.214;2022-08-21T10:15:47;31.20;91.70
23267;DHT22;11802;53.160;8.214;2022-08-21T10:18:24;32.10;91.10
23267;DHT22;11802;53.160;8.214;2022-08-21T10:21:02;32.10;90.40
23267;DHT22;11802;53.160;8.214;2022-08-21T10:23:56;31.40;90.90
23267;DHT22;11802;53.160;8.214;2022-08-21T10:27:05;30.80;91.90
23267;DHT22;11802;53.160;8.214;2022-08-21T10:29:44;30.80;91.80
23267;DHT22;11802;53.160;8.214;2022-08-21T10:32:38;30.30;92.00
23267;DHT22;11802;53.160;8.214;2022-08-21T10:35:30;29.90;92.50
23267;DHT22;11802;53.160;8.214;2022-08-21T10:38:31;30.30;93.00
23267;DHT22;11802;53.160;8.214;2022-08-21T10:41:08;29.90;92.80
23267;DHT22;11802;53.160;8.214;2022-08-21T10:49:17;31.30;92.90
23267;DHT22;11802;53.160;8.214;2022-08-21T10:52:28;31.90;90.50
23267;DHT22;11802;53.160;8.214;2022-08-21T10:57:05;31.70;90.60
23267;DHT22;11802;53.160;8.214;2022-08-21T10:59:59;32.10;90.50
23267;DHT22;11802;53.160;8.214;2022-08-21T11:02:32;31.90;90.20
23267;DHT22;11802;53.160;8.214;2022-08-21T11:05:46;32.00;90.20
23267;DHT22;11802;53.160;8.214;2022-08-21T11:11:41;32.60;89.10
23267;DHT22;11802;53.160;8.214;2022-08-21T11:16:49;32.60;87.50
23267;DHT22;11802;53.160;8.214;2022-08-21T11:19:28;31.70;88.10
23267;DHT22;11802;53.160;8.214;2022-08-21T11:22:11;31.70;90.00
23267;DHT22;11802;53.160;8.214;2022-08-21T11:29:52;31.60;90.50
23267;DHT22;11802;53.160;8.214;2022-08-21T11:32:38;31.90;90.00
23267;DHT22;11802;53.160;8.214;2022-08-21T11:38:08;31.10;91.10
23267;DHT22;11802;53.160;8.214;2022-08-21T11:40:58;31.50;90.40
23267;DHT22;11802;53.160;8.214;2022-08-21T11:43:41;31.80;90.30
23267;DHT22;11802;53.160;8.214;2022-08-21T11:49:11;32.10;90.10
23267;DHT22;11802;53.160;8.214;2022-08-21T11:57:23;31.90;88.60
23267;DHT22;11802;53.160;8.214;2022-08-21T11:59:53;31.30;88.50
23267;DHT22;11802;53.160;8.214;2022-08-21T12:02:23;31.30;88.80
23267;DHT22;11802;53.160;8.214;2022-08-21T12:04:54;31.70;88.80
23267;DHT22;11802;53.160;8.214;2022-08-21T12:07:42;31.70;87.90
23267;DHT22;11802;53.160;8.214;2022-08-21T12:10:18;31.90;86.50
23267;DHT22;11802;53.160;8.214;2022-08-21T12:12:48;31.90;86.80
23267;DHT22;11802;53.160;8.214;2022-08-21T12:15:25;31.40;86.40
23267;DHT22;11802;53.160;8.214;2022-08-21T12:18:00;31.30;87.40
23267;DHT22;11802;53.160;8.214;2022-08-21T12:23:18;31.40;87.50
23267;DHT22;11802;53.160;8.214;2022-08-21T12:28:40;30.00;90.10
23267;DHT22;11802;53.160;8.214;2022-08-21T12:31:21;30.10;90.70
23267;DHT22;11802;53.160;8.214;2022-08-21T12:33:55;30.90;90.90
23267;DHT22;11802;53.160;8.214;2022-08-21T12:36:26;31.20;87.60
23267;DHT22;11802;53.160;8.214;2022-08-21T12:39:02;31.10;88.70
23267;DHT22;11802;53.160;8.214;2022-08-21T12:41:45;30.70;87.90
23267;DHT22;11802;53.160;8.214;2022-08-21T12:44:21;30.00;89.40
23267;DHT22;11802;53.160;8.214;2022-08-21T12:47:02;29.80;90.90
23267;DHT22;11802;53.160;8.214;2022-08-21T12:49:39;30.10;89.30
23267;DHT22;11802;53.160;8.214;2022-08-21T12:52:16;30.30;90.30
23267;DHT22;11802;53.160;8.214;2022-08-21T12:54:45;30.10;88.30
23267;DHT22;11802;53.160;8.214;2022-08-21T12:57:26;29.50;89.70
23267;DHT22;11802;53.160;8.214;2022-08-21T12:59:54;30.20;90.30
23267;DHT22;11802;53.160;8.214;2022-08-21T13:02:23;30.10;90.20
23267;DHT22;11802;53.160;8.214;2022-08-21T13:04:50;30.00;90.10
23267;DHT22;11802;53.160;8.214;2022-08-21T13:07:24;29.30;90.30
23267;DHT22;11802;53.160;8.214;2022-08-21T13:09:57;29.40;90.60
23267;DHT22;11802;53.160;8.214;2022-08-21T13:12:25;29.40;90.20
23267;DHT22;11802;53.160;8.214;2022-08-21T13:14:51;29.80;90.00
23267;DHT22;11802;53.160;8.214;2022-08-21T13:17:19;30.00;90.50
23267;DHT22;11802;53.160;8.214;2022-08-21T13:19:57;30.20;88.60
23267;DHT22;11802;53.160;8.214;2022-08-21T13:22:24;30.20;88.70
23267;DHT22;11802;53.160;8.214;2022-08-21T13:24:49;30.10;90.00
23267;DHT22;11802;53.160;8.214;2022-08-21T13:27:33;29.80;90.00
23267;DHT22;11802;53.160;8.214;2022-08-21T13:30:04;29.70;91.40
23267;DHT22;11802;53.160;8.214;2022-08-21T13:32:31;29.80;89.50
23267;DHT22;11802;53.160;8.214;2022-08-21T13:34:59;29.80;90.20
23267;DHT22;11802;53.160;8.214;2022-08-21T13:37:32;29.70;90.20
23267;DHT22;11802;53.160;8.214;2022-08-21T13:39:57;29.30;89.30
23267;DHT22;11802;53.160;8.214;2022-08-21T13:42:23;29.60;90.60
23267;DHT22;11802;53.160;8.214;2022-08-21T13:44:52;29.50;90.10
23267;DHT22;11802;53.160;8.214;2022-08-21T13:47:18;29.40;90.00
23267;DHT22;11802;53.160;8.214;2022-08-21T13:49:47;29.50;89.50
23267;DHT22;11802;53.160;8.214;2022-08-21T13:52:19;29.60;90.00
23267;DHT22;11802;53.160;8.214;2022-08-21T13:54:57;29.60;90.30
23267;DHT22;11802;53.160;8.214;2022-08-21T13:57:31;29.90;90.70
23267;DHT22;11802;53.160;8.214;2022-08-21T14:02:45;29.90;88.40
23267;DHT22;11802;53.160;8.214;2022-08-21T14:05:20;29.90;88.10
23267;DHT22;11802;53.160;8.214;2022-08-21T14:07:47;29.90;87.30
23267;DHT22;11802;53.160;8.214;2022-08-21T14:10:16;29.80;89.10
23267;DHT22;11802;53.160;8.214;2022-08-21T14:12:48;29.60;90.00
23267;DHT22;11802;53.160;8.214;2022-08-21T14:15:17;29.40;86.90
23267;DHT22;11802;53.160;8.214;2022-08-21T14:17:43;29.30;85.40
23267;DHT22;11802;53.160;8.214;2022-08-21T14:20:12;28.90;89.80
23267;DHT22;11802;53.160;8.214;2022-08-21T14:22:49;28.70;90.30
23267;DHT22;11802;53.160;8.214;2022-08-21T14:30:47;28.90;90.10
23267;DHT22;11802;53.160;8.214;2022-08-21T14:33:31;29.00;89.00
23267;DHT22;11802;53.160;8.214;2022-08-21T14:35:58;29.10;89.60
23267;DHT22;11802;53.160;8.214;2022-08-21T14:38:26;29.20;85.90
23267;DHT22;11802;53.160;8.214;2022-08-21T14:40:58;29.20;87.60
23267;DHT22;11802;53.160;8.214;2022-08-21T14:43:27;29.40;87.70
23267;DHT22;11802;53.160;8.214;2022-08-21T14:45:53;29.40;87.40
23267;DHT22;11802;53.160;8.214;2022-08-21T14:48:19;29.10;88.10
23267;DHT22;11802;53.160;8.214;2022-08-21T14:50:45;29.00;90.50
23267;DHT22;11802;53.160;8.214;2022-08-21T14:53:10;29.00;90.00
23267;DHT22;11802;53.160;8.214;2022-08-21T14:55:37;28.50;90.40
23267;DHT22;11802;53.160;8.214;2022-08-21T14:58:22;28.00;90.30
23267;DHT22;11802;53.160;8.214;2022-08-21T15:00:50;28.10;90.70
23267;DHT22;11802;53.160;8.214;2022-08-21T15:03:18;28.40;90.90
23267;DHT22;11802;53.160;8.214;2022-08-21T15:05:43;28.60;90.00
23267;DHT22;11802;53.160;8.214;2022-08-21T15:08:09;28.60;89.40
23267;DHT22;11802;53.160;8.214;2022-08-21T15:10:35;28.50;89.00
23267;DHT22;11802;53.160;8.214;2022-08-21T15:13:02;28.30;87.70
23267;DHT22;11802;53.160;8.214;2022-08-21T15:15:32;28.20;90.30
23267;DHT22;11802;53.160;8.214;2022-08-21T15:17:59;28.10;89.90
23267;DHT22;11802;53.160;8.214;2022-08-21T15:20:25;28.00;92.10
23267;DHT22;11802;53.160;8.214;2022-08-21T15:22:50;27.90;91.60
23267;DHT22;11802;53.160;8.214;2022-08-21T15:25:16;27.90;90.40
23267;DHT22;11802;53.160;8.214;2022-08-21T15:27:41;27.90;90.00
23267;DHT22;11802;53.160;8.214;2022-08-21T15:30:07;27.70;91.60
23267;DHT22;11802;53.160;8.214;2022-08-21T15:32:33;27.60;91.10
23267;DHT22;11802;53.160;8.214;2022-08-21T15:34:59;27.70;91.40
23267;DHT22;11802;53.160;8.214;2022-08-21T15:37:25;27.80;92.30
23267;DHT22;11802;53.160;8.214;2022-08-21T15:39:51;27.70;92.00
23267;DHT22;11802;53.160;8.214;2022-08-21T15:42:18;27.50;91.70
23267;DHT22;11802;53.160;8.214;2022-08-21T15:44:44;27.40;92.20
23267;DHT22;11802;53.160;8.214;2022-08-21T15:47:19;27.20;91.80
23267;DHT22;11802;53.160;8.214;2022-08-21T15:49:46;27.10;92.50
23267;DHT22;11802;53.160;8.214;2022-08-21T15:52:16;26.80;92.60
23267;DHT22;11802;53.160;8.214;2022-08-21T15:54:42;26.70;93.20
23267;DHT22;11802;53.160;8.214;2022-08-21T15:57:09;26.50;93.00
23267;DHT22;11802;53.160;8.214;2022-08-21T15:59:40;26.30;93.70
23267;DHT22;11802;53.160;8.214;2022-08-21T16:02:14;26.10;93.70
23267;DHT22;11802;53.160;8.214;2022-08-21T16:04:40;26.00;94.20
23267;DHT22;11802;53.160;8.214;2022-08-21T16:07:05;25.90;95.10
23267;DHT22;11802;53.160;8.214;2022-08-21T16:09:31;25.90;97.50
23267;DHT22;11802;53.160;8.214;2022-08-21T16:11:58;25.90;98.20
23267;DHT22;11802;53.160;8.214;2022-08-21T16:14:24;25.70;99.90
23267;DHT22;11802;53.160;8.214;2022-08-21T16:16:51;25.50;99.90
23267;DHT22;11802;53.160;8.214;2022-08-21T16:19:16;25.50;99.90
23267;DHT22;11802;53.160;8.214;2022-08-21T16:21:42;25.20;99.90
23267;DHT22;11802;53.160;8.214;2022-08-21T16:24:08;25.10;99.90
23267;DHT22;11802;53.160;8.214;2022-08-21T16:26:33;25.10;99.90
23267;DHT22;11802;53.160;8.214;2022-08-21T16:29:00;25.00;99.90
23267;DHT22;11802;53.160;8.214;2022-08-21T16:31:27;24.90;99.90
23267;DHT22;11802;53.160;8.214;2022-08-21T16:33:54;24.90;99.90
23267;DHT22;11802;53.160;8.214;2022-08-21T16:36:21;24.80;99.90
23267;DHT22;11802;53.160;8.214;2022-08-21T16:38:47;24.80;99.90
23267;DHT22;11802;53.160;8.214;2022-08-21T16:41:15;24.80;99.90
23267;DHT22;11802;53.160;8.214;2022-08-21T16:43:43;24.80;99.90